Terminal Aerodrome Forecast
Issued by NWS Pueblo, CO

Home | Current Version | Previous Version | Text Only | Print | Product List | Glossary On
Versions: 1 2 3 4 5 6 7 8 9 10 11 12 13 14
000
FTUS45 KPUB 201721
TAFPUB
TAF
KPUB 201721Z 2018/2118 08010KT P6SM SCT040 BKN080
     FM202000 09007KT P6SM VCTS SCT050CB BKN100
      TEMPO 2020/2023 VRB20G30KT P6SM BKN050CB
     FM202300 35012KT P6SM SCT060 SCT120
     FM210200 36006KT P6SM FEW070 SCT150=

USA.gov is the U.S. government's official web portal to all federal, state and local government web resources and services.